地図

経路データ

SID SEASON NUMBER BASIN SUBBASIN NAME ISO_TIME NATURE LAT LON WMO_WIND WMO_PRES WMO_AGENCY TRACK_TYPE DIST2LAND LANDFALL IFLAG USA_AGENCY USA_ATCF_ID USA_LAT USA_LON USA_RECORD USA_STATUS USA_WIND USA_PRES USA_SSHS USA_R34_NE USA_R34_SE USA_R34_SW USA_R34_NW USA_R50_NE USA_R50_SE USA_R50_SW USA_R50_NW USA_R64_NE USA_R64_SE USA_R64_SW USA_R64_NW USA_POCI USA_ROCI USA_RMW USA_EYE TOKYO_LAT TOKYO_LON TOKYO_GRADE TOKYO_WIND TOKYO_PRES TOKYO_R50_DIR TOKYO_R50_LONG TOKYO_R50_SHORT TOKYO_R30_DIR TOKYO_R30_LONG TOKYO_R30_SHORT TOKYO_LAND CMA_LAT CMA_LON CMA_CAT CMA_WIND CMA_PRES HKO_LAT HKO_LON HKO_CAT HKO_WIND HKO_PRES NEWDELHI_LAT NEWDELHI_LON NEWDELHI_GRADE NEWDELHI_WIND NEWDELHI_PRES NEWDELHI_CI NEWDELHI_DP NEWDELHI_POCI REUNION_LAT REUNION_LON REUNION_TYPE REUNION_WIND REUNION_PRES REUNION_TNUM REUNION_CI REUNION_RMW REUNION_R34_NE REUNION_R34_SE REUNION_R34_SW REUNION_R34_NW REUNION_R50_NE REUNION_R50_SE REUNION_R50_SW REUNION_R50_NW REUNION_R64_NE REUNION_R64_SE REUNION_R64_SW REUNION_R64_NW BOM_LAT BOM_LON BOM_TYPE BOM_WIND BOM_PRES BOM_TNUM BOM_CI BOM_RMW BOM_R34_NE BOM_R34_SE BOM_R34_SW BOM_R34_NW BOM_R50_NE BOM_R50_SE BOM_R50_SW BOM_R50_NW BOM_R64_NE BOM_R64_SE BOM_R64_SW BOM_R64_NW BOM_ROCI BOM_POCI BOM_EYE BOM_POS_METHOD BOM_PRES_METHOD NADI_LAT NADI_LON NADI_CAT NADI_WIND NADI_PRES WELLINGTON_LAT WELLINGTON_LON WELLINGTON_WIND WELLINGTON_PRES DS824_LAT DS824_LON DS824_STAGE DS824_WIND DS824_PRES TD9636_LAT TD9636_LON TD9636_STAGE TD9636_WIND TD9636_PRES TD9635_LAT TD9635_LON TD9635_WIND TD9635_PRES TD9635_ROCI NEUMANN_LAT NEUMANN_LON NEUMANN_CLASS NEUMANN_WIND NEUMANN_PRES MLC_LAT MLC_LON MLC_CLASS MLC_WIND MLC_PRES USA_GUST BOM_GUST BOM_GUST_PER REUNION_GUST REUNION_GUST_PER USA_SEAHGT USA_SEARAD_NE USA_SEARAD_SE USA_SEARAD_SW USA_SEARAD_NW STORM_SPEED STORM_DIR
1968014S13166 1968 4 SP MM BRENDA 1968-01-13 23:00:00 NR -12.9000 165.600 1000 bom main 228 228 ______O_______ -1 -12.9000 165.600 1000 25 0
1968014S13166 1968 4 SP MM BRENDA 1968-01-14 00:00:00 TS -12.4823 165.623 main 269 268 O_____P__OO_O_ jtwc_sh SH131968 -11.9000 165.700 -1 -12.9380 165.479 1000 -11.9000 165.700 TC -11.9000 165.700 2 -12.9000 165.800 TC 30 1000 5 310
1968014S13166 1968 4 SP MM BRENDA 1968-01-14 03:00:00 TS -12.6740 165.328 main 264 258 P_____P__PP_P_ SH131968 -12.2575 165.458 -1 -13.0533 165.118 1000 -12.2575 165.458 TC -12.2422 165.449 2 -12.9901 165.453 TC 30 1000 7 235
1968014S13166 1968 4 SP MM BRENDA 1968-01-14 06:00:00 TS -12.8919 165.024 main 265 264 O_____P__OP_O_ jtwc_sh SH131968 -12.6000 165.200 -1 -13.1741 164.763 1000 -12.6000 165.200 TC -12.5775 165.188 2 -13.1000 165.100 TC 30 1000 7 234
1968014S13166 1968 4 SP MM BRENDA 1968-01-14 09:00:00 TS -13.1052 164.722 main 272 264 P_____P__PP_P_ SH131968 -12.9150 164.915 -1 -13.3050 164.420 1000 -12.9150 164.915 TC -12.8990 164.908 2 -13.2425 164.743 TC 30 1000 7 234
1968014S13166 1968 4 SP MM BRENDA 1968-01-14 11:00:00 TS -13.2531 164.507 1000 bom main 273 273 P_____O__PP_P_ SH131968 -13.1083 164.708 -1 -13.4000 164.200 1000 -13.1083 164.708 TC -13.1024 164.706 2 -13.3474 164.511 TC 30 1000 8 235
1968014S13166 1968 4 SP MM BRENDA 1968-01-14 12:00:00 TS -13.3250 164.399 main 282 282 O_____P__OO_O_ jtwc_sh SH131968 -13.2000 164.600 -1 -13.4503 164.093 1000 -13.2000 164.600 TC -13.2000 164.600 1 -13.4000 164.400 TC 30 1000 8 237
1968014S13166 1968 4 SP MM BRENDA 1968-01-14 15:00:00 TS -13.5315 164.073 main 297 297 P_____P__PP_P_ SH131968 -13.4575 164.257 -1 -13.6082 163.784 1000 -13.4575 164.257 TC -13.4757 164.259 1 -13.5499 164.092 TC 30 1000 8 238
1968014S13166 1968 4 SP MM BRENDA 1968-01-14 18:00:00 TS -13.7282 163.745 main 326 321 O_____P__OP_O_ jtwc_sh SH131968 -13.7000 163.900 -1 -13.7670 163.487 1000 -13.7000 163.900 TC -13.7301 163.900 1 -13.7000 163.800 TC 30 1000 8 238
1968014S13166 1968 4 SP MM BRENDA 1968-01-14 21:00:00 TS -13.9237 163.416 main 348 345 P_____P__PP_P_ SH131968 -13.9500 163.535 -1 -13.9144 163.195 1000 -13.9500 163.535 TC -13.9695 163.541 1 -13.8650 163.500 TC 30 1000 7 239
1968014S13166 1968 4 SP MM BRENDA 1968-01-14 23:00:00 TS -14.0474 163.203 1000 bom main 366 364 P_____O__PP_P_ SH131968 -14.1167 163.305 -1 -14.0000 163.000 1000 -14.1167 163.305 TC -14.1237 163.310 1 -13.9614 163.300 TC 30 1000 7 239
1968014S13166 1968 4 SP MM BRENDA 1968-01-15 00:00:00 TS -14.1054 163.100 main 374 374 O_____P__OO_O_ jtwc_sh SH131968 -14.2000 163.200 -1 -14.0326 162.899 1000 -14.2000 163.200 TC -14.2000 163.200 1 -14.0000 163.200 TC 30 1000 7 240
1968014S13166 1968 4 SP MM BRENDA 1968-01-15 03:00:00 TS -14.2677 162.813 main 395 394 P_____P__PP_P_ SH131968 -14.4574 162.942 -1 -14.1127 162.594 1000 -14.4574 162.942 TC -14.4401 162.903 1 -14.0575 162.900 TC 30 1000 6 240
1968014S13166 1968 4 SP MM BRENDA 1968-01-15 06:00:00 TS -14.4168 162.535 main 403 403 O_____P__OP_O_ jtwc_sh SH131968 -14.7000 162.700 -1 -14.1788 162.292 1000 -14.7000 162.700 TC -14.6722 162.627 1 -14.1000 162.600 TC 30 1000 6 242
1968014S13166 1968 4 SP MM BRENDA 1968-01-15 09:00:00 TS -14.5610 162.242 main 425 425 P_____P__PP_P_ SH131968 -14.9075 162.400 -1 -14.2464 161.994 1000 -14.9075 162.400 TC -14.8932 162.363 1 -14.1925 162.300 TC 30 1000 6 243
1968014S13166 1968 4 SP MM BRENDA 1968-01-15 11:00:00 TS -14.6566 162.046 1000 bom main 436 436 P_____O__PP_P_ SH131968 -15.0360 162.197 -1 -14.3000 161.800 1000 -15.0360 162.197 TC -15.0329 162.188 1 -14.2640 162.100 TC 30 1000 6 243
1968014S13166 1968 4 SP MM BRENDA 1968-01-15 12:00:00 TS -14.7058 161.950 main 436 436 O_____P__OO_O_ jtwc_sh SH131968 -15.1000 162.100 -1 -14.3349 161.703 1000 -15.1000 162.100 TC -15.1000 162.100 1 -14.3000 162.000 TC 30 1000 6 240
1968014S13166 1968 4 SP MM BRENDA 1968-01-15 15:00:00 TS -14.8610 161.673 main 459 459 P_____P__PP_P_ SH131968 -15.3074 161.850 -1 -14.4508 161.415 1000 -15.3074 161.850 TC -15.3015 161.821 1 -14.3925 161.692 TC 30 1000 6 240
1968014S13166 1968 4 SP MM BRENDA 1968-01-15 18:00:00 TS -15.0155 161.401 main 472 472 O_____P__OP_O_ jtwc_sh SH131968 -15.5000 161.600 -1 -14.5784 161.136 1000 -15.5000 161.600 TC -15.4874 161.542 1 -14.5000 161.400 TC 30 1000 6 240
1968014S13166 1968 4 SP MM BRENDA 1968-01-15 21:00:00 TS -15.1676 161.123 main 498 498 P_____P__PP_P_ SH131968 -15.6650 161.300 -1 -14.7114 160.869 1000 -15.6650 161.300 TC -15.6546 161.268 1 -14.6499 161.143 TC 30 1000 6 241
1968014S13166 1968 4 SP MM BRENDA 1968-01-15 23:00:00 TS -15.2627 160.941 1000 bom main 513 513 P_____O__PP_P_ SH131968 -15.7583 161.097 -1 -14.8000 160.700 1000 -15.7583 161.097 TC -15.7542 161.088 1 -14.7531 160.981 TC 30 1000 6 242
1968014S13166 1968 4 SP MM BRENDA 1968-01-16 00:00:00 TS -15.3063 160.852 main 513 513 O_____P__OO_O_ jtwc_sh SH131968 -15.8000 161.000 -1 -14.8379 160.615 999 -15.8000 161.000 TC -15.8000 161.000 1 -14.8000 160.900 TC 30 1000 6 245
1968014S13166 1968 4 SP MM BRENDA 1968-01-16 03:00:00 TS -15.4175 160.596 main 531 531 P_____P__PP_P_ SH131968 -15.9074 160.742 -1 -14.9503 160.368 999 -15.9074 160.742 TC -15.9052 160.738 1 -14.9000 160.642 TC 30 999 5 246
1968014S13166 1968 4 SP MM BRENDA 1968-01-16 06:00:00 TS -15.5229 160.355 main 547 547 O_____P__OP_O_ jtwc_sh SH131968 -16.0000 160.500 -1 -15.0677 160.138 998 -16.0000 160.500 TC -15.9924 160.485 1 -15.0000 160.400 TC 30 999 5 244
1968014S13166 1968 4 SP MM BRENDA 1968-01-16 09:00:00 TS -15.6366 160.123 main 568 568 P_____P__PP_P_ SH131968 -16.0850 160.250 -1 -15.1995 159.928 998 -16.0850 160.250 TC -16.0834 160.238 1 -15.1350 160.185 TC 32 998 5 241
1968014S13166 1968 4 SP EA BRENDA 1968-01-16 11:00:00 TS -15.7252 159.977 998 bom main 582 582 P_____O__PP_P_ SH131968 -16.1552 160.083 -1 -15.3000 159.800 998 -16.1552 160.083 TC -16.1569 160.079 1 -15.2417 160.058 TC 34 998 5 236
1968014S13166 1968 4 SP EA BRENDA 1968-01-16 12:00:00 TS -15.7762 159.906 main 596 596 O_____P__OO_O_ jtwc_sh SH131968 -16.2000 160.000 -1 -15.3569 159.734 998 -16.2000 160.000 TC -16.2000 160.000 1 -15.3000 160.000 TC 35 998 5 230
1968014S13166 1968 4 SP EA BRENDA 1968-01-16 15:00:00 TS -15.9587 159.689 main 624 624 P_____P__PP_P_ SH131968 -16.3850 159.743 -1 -15.5444 159.548 998 -16.3850 159.743 TC -16.3592 159.727 1 -15.4925 159.842 TC 35 998 6 226
1968014S13166 1968 4 SP EA BRENDA 1968-01-16 18:00:00 TS -16.1638 159.491 main 653 653 O_____P__OP_O_ jtwc_sh SH131968 -16.6000 159.500 -1 -15.7490 159.389 998 -16.6000 159.500 TC -16.5476 159.468 1 -15.7000 159.700 TC 35 998 5 222
1968014S13166 1968 4 SP EA BRENDA 1968-01-16 21:00:00 TS -16.3668 159.312 main 660 660 P_____P__PP_P_ SH131968 -16.7925 159.270 -1 -15.9603 159.263 998 -16.7925 159.270 TC -16.7623 159.249 1 -15.9000 159.535 TC 35 998 5 218
1968014S13166 1968 4 SP EA BRENDA 1968-01-16 23:00:00 TS -16.5064 159.216 998 bom main 661 653 P_____O__PP_P_ SH131968 -16.9276 159.147 -1 -16.1000 159.200 998 -16.9276 159.147 TC -16.9184 159.140 1 -16.0333 159.439 TC 35 998 5 211
1968014S13166 1968 4 SP EA BRENDA 1968-01-17 00:00:00 TS -16.5762 159.178 main 653 648 O_____P__OO_O_ jtwc_sh SH131968 -17.0000 159.100 -1 -16.1573 159.170 997 -17.0000 159.100 TC -17.0000 159.100 1 -16.1000 159.400 TC 35 998 5 202
1968014S13166 1968 4 SP EA BRENDA 1968-01-17 03:00:00 TS -16.7896 159.093 main 648 641 P_____P__PP_P_ SH131968 -17.2350 159.005 -1 -16.3415 159.110 996 -17.2350 159.005 TC -17.2734 159.000 1 -16.2775 159.320 TC 35 997 5 194
1968014S13166 1968 4 SP EA BRENDA 1968-01-17 05:00:00 TS -16.9526 159.076 996 bom main 634 634 P_____O__PP_P_ SH131968 -17.4083 158.992 -1 -16.5000 159.100 996 -17.4083 158.992 TC -17.4670 158.976 1 -16.4162 159.300 TC 35 996 5 0
1968014S13166 1968 4 SP EA BRENDA 1968-01-17 06:00:00 TS -17.0437 159.078 main 634 615 O_____P__OP_O_ jtwc_sh SH131968 -17.5000 159.000 -1 -16.5979 159.093 996 -17.5000 159.000 TC -17.5644 158.978 1 -16.5000 159.300 TC 35 996 6 175
1968014S13166 1968 4 SP EA BRENDA 1968-01-17 09:00:00 TS -17.3624 159.119 main 609 588 P_____P__PP_P_ SH131968 -17.8150 159.062 -1 -16.9456 159.119 996 -17.8150 159.062 TC -17.8483 159.041 1 -16.8274 159.283 TC 35 996 7 167
1968014S13166 1968 4 SP EA BRENDA 1968-01-17 11:00:00 TS -17.5829 159.200 996 bom main 588 582 P_____O__PP_P_ SH131968 -18.0145 159.147 -1 -17.2000 159.200 996 -18.0145 159.147 TC -18.0212 159.136 1 -17.0754 159.338 TC 35 996 7 157
1968014S13166 1968 4 SP EA BRENDA 1968-01-17 12:00:00 TS -17.6878 159.260 main 573 543 O_____P__OO_O_ jtwc_sh SH131968 -18.1000 159.200 -1 -17.3268 159.257 996 -18.1000 159.200 TC -18.1000 159.200 1 -17.2000 159.400 TC 35 996 7 145
1968014S13166 1968 4 SP EA BRENDA 1968-01-17 15:00:00 TS -17.9590 159.480 main 538 499 P_____P__PP_P_ SH131968 -18.2723 159.340 -1 -17.7216 159.521 996 -18.2723 159.340 TC -18.2563 159.377 1 -17.5426 159.747 TC 35 996 7 135
1968014S13166 1968 4 SP EA BRENDA 1968-01-17 18:00:00 TS -18.2144 159.816 main 499 446 O_____P__OP_O_ jtwc_sh SH131968 -18.4000 159.600 -1 -18.1166 159.911 996 -18.4000 159.600 TC -18.3829 159.655 1 -17.9000 160.200 TC 35 996 9 125
1968014S13166 1968 4 SP MM BRENDA 1968-01-17 21:00:00 TS -18.4741 160.240 main 446 404 P_____P__PP_P_ SH131968 -18.5271 160.003 -1 -18.4841 160.412 996 -18.5271 160.003 TC -18.5182 160.056 1 -18.3221 160.555 TC 35 996 10 120
1968014S13166 1968 4 SP MM BRENDA 1968-01-17 23:00:00 TS -18.6465 160.597 996 bom main 404 380 P_____O__PP_P_ SH131968 -18.6326 160.378 -1 -18.7000 160.800 996 -18.6326 160.378 TC -18.6319 160.401 1 -18.5866 160.832 TC 35 996 12 116
1968014S13166 1968 4 SP MM BRENDA 1968-01-18 00:00:00 TS -18.7294 160.800 main 380 299 O_____P__OO_O_ jtwc_sh SH131968 -18.7000 160.600 -1 -18.7761 160.998 995 -18.7000 160.600 TC -18.7000 160.600 1 -18.7000 161.000 TC 35 996 14 110
1968014S13166 1968 4 SP MM BRENDA 1968-01-18 03:00:00 TS -18.9646 161.516 main 299 216 P_____P__PP_P_ SH131968 -18.9702 161.397 -1 -18.9599 161.665 994 -18.9702 161.397 TC -18.9643 161.322 1 -18.9301 161.648 TC 37 994 15 108
1968014S13166 1968 4 SP MM BRENDA 1968-01-18 06:00:00 TS -19.2076 162.333 main 216 129 O_____P__OP_O_ jtwc_sh SH131968 -19.3000 162.300 -1 -19.1216 162.407 992 -19.3000 162.300 TC -19.2776 162.179 1 -19.1000 162.400 TC 40 993 16 108
1968014S13166 1968 4 SP MM BRENDA 1968-01-18 09:00:00 TS -19.4686 163.160 main 122 69 P_____P__PP_P_ SH131968 -19.6348 163.165 -1 -19.3193 163.183 991 -19.6348 163.165 TC -19.6267 163.097 1 -19.2698 163.143 TC 42 991 17 110
1968014S13166 1968 4 SP MM BRENDA 1968-01-18 11:00:00 TS -19.6713 163.708 990 bom main 69 49 P_____O__PP_P_ SH131968 -19.8749 163.728 -1 -19.5000 163.700 990 -19.8749 163.728 TC -19.8735 163.706 1 -19.4104 163.648 TC 44 990 17 112
1968014S13166 1968 4 SP MM BRENDA 1968-01-18 12:00:00 TS -19.7843 163.973 main 45 22 O_____P__OO_O_ jtwc_sh SH131968 -20.0000 164.000 -1 -19.6056 163.939 990 -20.0000 164.000 TC -20.0000 164.000 1 -19.5000 163.900 TC 45 990 16 118
1968014S13166 1968 4 SP MM BRENDA 1968-01-18 15:00:00 TS -20.1727 164.727 main 23 23 P_____P__PP_P_ SH131968 -20.3920 164.765 -1 -19.9851 164.674 990 -20.3920 164.765 TC -20.3768 164.780 1 -19.8394 164.628 TC 45 990 16 120
1968014S13166 1968 4 SP MM BRENDA 1968-01-18 17:00:00 TS -20.4669 165.228 990 bom main 33 30 P_____O__PP_P_ SH131968 -20.6638 165.255 -1 -20.3000 165.200 990 4 -20.6638 165.255 TC -20.6407 165.283 1 -20.1330 165.133 TC 45 990 17 123
1968014S13166 1968 4 SP MM BRENDA 1968-01-18 18:00:00 TS -20.6318 165.483 main 38 30 O_____P__OP_O_ jtwc_sh SH131968 -20.8000 165.500 -1 -20.4783 165.480 990 -20.8000 165.500 TC -20.7754 165.531 1 -20.3000 165.400 TC 45 990 18 123
1968014S13166 1968 4 SP MM BRENDA 1968-01-18 21:00:00 TS -21.1147 166.282 main 49 45 P_____P__PP_P_ SH131968 -21.1997 166.250 -1 -21.0755 166.375 990 -21.1997 166.250 TC -21.1863 166.267 1 -20.8929 166.314 TC 45 990 18 123
1968014S13166 1968 4 SP MM BRENDA 1968-01-18 23:00:00 TS -21.4299 166.806 990 bom main 53 45 P_____O__PP_P_ SH131968 -21.4665 166.750 -1 -21.5000 167.000 990 -21.4665 166.750 TC -21.4624 166.755 1 -21.3068 166.920 TC 45 990 17 123
1968014S13166 1968 4 SP MM BRENDA 1968-01-19 00:00:00 TS -21.5750 167.050 main 59 54 O________OO_O_ jtwc_sh SH131968 -21.6000 167.000 -1 -21.6000 167.000 TC -21.6000 167.000 2 -21.5000 167.200 TC 45 990 16 121
1968014S13166 1968 4 SP MM BRENDA 1968-01-19 03:00:00 TS -21.9801 167.782 main 85 85 P________PP_P_ SH131968 -21.9997 167.750 -1 -21.9997 167.750 TC -21.9422 167.754 2 -21.9790 167.874 TC 45 16 121
1968014S13166 1968 4 SP MM BRENDA 1968-01-19 06:00:00 TS -22.3735 168.501 main 154 154 O________OP_O_ jtwc_sh SH131968 -22.4000 168.500 -1 -22.4000 168.500 TC -22.2938 168.506 2 -22.4000 168.500 TC 45 16 120
1968014S13166 1968 4 SP MM BRENDA 1968-01-19 09:00:00 TS -22.7519 169.246 main 232 232 P________PP_P_ SH131968 -22.7697 169.251 -1 -22.7697 169.251 TC -22.6985 169.254 2 -22.7698 169.229 TC 42 16 121
1968014S13166 1968 4 SP MM BRENDA 1968-01-19 12:00:00 TS -23.2000 170.000 main 323 323 O________OO_O_ jtwc_sh SH131968 -23.2000 170.000 -1 -23.2000 170.000 TC -23.2000 170.000 2 -23.2000 170.000 TC 40 17 126
1968014S13166 1968 4 SP MM BRENDA 1968-01-19 15:00:00 TS -23.7652 170.763 main 423 423 P________PP_P_ SH131968 -23.7247 170.751 -1 -23.7247 170.751 TC -23.8290 170.744 2 -23.7825 170.808 TC 37 19 132
1968014S13166 1968 4 SP MM BRENDA 1968-01-19 18:00:00 TS -24.4657 171.522 main 520 520 O________OP_O_ jtwc_sh SH131968 -24.4000 171.500 -1 -24.4000 171.500 TC -24.5629 171.489 2 -24.5000 171.600 TC 35 21 138
1968014S13166 1968 4 SP MM BRENDA 1968-01-19 21:00:00 TS -25.2974 172.264 main 634 634 P________PP_P_ SH131968 -25.2507 172.247 -1 -25.2507 172.247 TC -25.3655 172.240 2 -25.3229 172.321 TC 32 22 142
1968014S13166 1968 4 SP MM BRENDA 1968-01-20 00:00:00 TS -26.2000 173.000 main 747 O________OO_O_ jtwc_sh SH131968 -26.2000 173.000 -1 -26.2000 173.000 TC -26.2000 173.000 1 -26.2000 173.000 TC 30 22 144

デジタル台風データ・検索

IBTrACS Databaseについて

本データベースは、米国NOAAが公開する1842年以降の世界の熱帯低気圧のベストトラックデータアーカイブInternational Best Track Archive for Climate Stewardship (IBTrACS)を、ウェブで閲覧しやすい形式に変換したものです。

最終更新日:2021-11-26